Time;durP1;ratioP1;P1;durP2;ratioP2;P2;SDS_P1;SDS_P2;PMS_P1;PMS_P2;Temp;Humidity;BMP_temperature;BMP_pressure;BME280_temperature;BME280_humidity;BME280_pressure;Samples;Min_cycle;Max_cycle;Signal;HPM_P1;HPM_P2
2022/03/05 00:01:58;;;;;;;51.08;29.80;;;;;;;4.37;100.00;101117.59;5095552;28;20036;-72
2022/03/05 00:04:43;;;;;;;52.60;30.60;;;;;;;4.59;100.00;101119.66;5095379;28;20519;-72
2022/03/05 00:07:29;;;;;;;57.05;32.03;;;;;;;4.01;100.00;101127.44;5095640;28;20367;-72
2022/03/05 00:10:16;;;;;;;54.80;32.40;;;;;;;4.02;100.00;101124.88;5095530;28;20016;-72
2022/03/05 00:13:03;;;;;;;53.70;31.52;;;;;;;3.89;100.00;101132.44;5095533;28;20044;-73
2022/03/05 00:15:49;;;;;;;54.10;31.33;;;;;;;3.90;100.00;101132.47;5094620;28;20042;-73
2022/03/05 00:18:34;;;;;;;51.78;30.45;;;;;;;3.86;100.00;101135.00;5095965;28;20464;-73
2022/03/05 00:21:20;;;;;;;70.00;36.60;;;;;;;3.60;100.00;101129.38;5095614;28;20115;-72
2022/03/05 00:24:06;;;;;;;59.40;33.30;;;;;;;3.58;100.00;101130.22;5095477;28;20122;-72
2022/03/05 00:26:51;;;;;;;53.65;32.00;;;;;;;3.84;100.00;101131.50;5095766;28;20024;-73
2022/03/05 00:29:37;;;;;;;49.83;30.70;;;;;;;3.75;100.00;101129.66;5093595;28;20038;-72
2022/03/05 00:32:23;;;;;;;55.97;30.25;;;;;;;3.78;100.00;101121.03;5095363;28;20531;-73
2022/03/05 00:35:10;;;;;;;59.17;31.95;;;;;;;3.51;100.00;101124.06;5094673;28;20517;-73
2022/03/05 00:37:56;;;;;;;52.67;30.85;;;;;;;3.84;100.00;101123.72;5093882;28;20444;-74
2022/03/05 00:40:42;;;;;;;47.65;29.20;;;;;;;3.86;100.00;101127.22;5094598;28;20028;-73
2022/03/05 00:43:28;;;;;;;50.95;28.70;;;;;;;3.60;100.00;101124.19;5095046;28;20443;-73
2022/03/05 00:46:14;;;;;;;45.97;27.77;;;;;;;3.44;100.00;101111.84;5094555;28;20468;-72
2022/03/05 00:48:59;;;;;;;50.08;29.92;;;;;;;3.65;100.00;101111.31;5095339;28;20333;-73
2022/03/05 00:51:45;;;;;;;45.60;27.60;;;;;;;3.85;100.00;101108.19;5078906;28;20019;-73
2022/03/05 00:54:31;;;;;;;42.92;26.92;;;;;;;4.00;100.00;101111.03;5093744;28;20090;-73
2022/03/05 00:57:16;;;;;;;45.17;28.50;;;;;;;3.50;100.00;101111.91;5079081;28;20039;-72
2022/03/05 01:00:04;;;;;;;47.42;27.73;;;;;;;3.70;100.00;101125.22;5094471;28;20522;-73
2022/03/05 01:02:51;;;;;;;47.72;28.65;;;;;;;3.69;100.00;101123.47;5094004;28;20028;-72
2022/03/05 01:05:37;;;;;;;48.95;28.42;;;;;;;3.92;100.00;101116.94;5094150;28;20038;-73
2022/03/05 01:08:23;;;;;;;47.92;27.23;;;;;;;3.89;100.00;101122.06;5080072;28;20107;-73
2022/03/05 01:11:09;;;;;;;48.50;28.65;;;;;;;3.74;100.00;101125.28;5092703;28;20047;-72
2022/03/05 01:13:55;;;;;;;46.47;27.70;;;;;;;3.55;100.00;101117.19;5094050;28;20074;-72
2022/03/05 01:16:41;;;;;;;51.08;29.80;;;;;;;3.75;100.00;101127.06;5078674;28;20168;-73
2022/03/05 01:19:26;;;;;;;43.80;27.75;;;;;;;3.71;100.00;101125.25;5094194;28;20020;-72
2022/03/05 01:22:12;;;;;;;44.80;27.48;;;;;;;3.98;100.00;101128.25;5092707;28;20028;-72
2022/03/05 01:24:58;;;;;;;49.97;28.95;;;;;;;4.00;100.00;101123.09;5094207;28;20030;-73
2022/03/05 01:27:44;;;;;;;44.92;28.75;;;;;;;3.88;100.00;101118.63;5093985;28;20047;-72
2022/03/05 01:30:30;;;;;;;55.78;30.90;;;;;;;3.33;100.00;101128.88;5094031;28;20035;-73
2022/03/05 01:33:17;;;;;;;56.38;31.10;;;;;;;3.81;100.00;101121.06;5093555;28;20036;-72
2022/03/05 01:36:03;;;;;;;59.95;32.22;;;;;;;3.42;100.00;101118.69;5078479;28;20055;-73
2022/03/05 01:38:49;;;;;;;63.47;33.33;;;;;;;3.57;100.00;101126.72;5094423;28;20020;-73
2022/03/05 01:41:35;;;;;;;63.60;34.03;;;;;;;3.76;100.00;101125.31;5094030;28;20379;-72
2022/03/05 01:44:22;;;;;;;55.80;31.10;;;;;;;4.20;100.00;101119.97;5093348;28;20093;-72
2022/03/05 01:47:08;;;;;;;55.38;32.75;;;;;;;3.65;100.00;101119.06;5093902;28;20059;-72
2022/03/05 01:49:54;;;;;;;52.45;30.33;;;;;;;3.89;100.00;101117.75;5093896;28;20035;-72
2022/03/05 01:52:40;;;;;;;52.60;30.92;;;;;;;3.57;100.00;101121.56;5092686;28;20065;-73
2022/03/05 01:55:26;;;;;;;52.70;32.83;;;;;;;3.88;100.00;101126.41;5094329;28;20073;-74
2022/03/05 01:58:12;;;;;;;53.40;31.77;;;;;;;3.29;100.00;101127.09;5093393;28;20099;-74
2022/03/05 02:00:58;;;;;;;55.15;31.83;;;;;;;3.49;100.00;101124.84;5094019;28;20216;-73
2022/03/05 02:03:44;;;;;;;56.42;32.70;;;;;;;3.34;100.00;101128.03;5093860;28;20043;-73
2022/03/05 02:06:29;;;;;;;56.85;34.00;;;;;;;3.54;100.00;101131.00;5094114;28;20035;-73
2022/03/05 02:09:15;;;;;;;56.00;32.10;;;;;;;3.32;100.00;101132.34;5093617;28;20028;-73
2022/03/05 02:12:02;;;;;;;56.30;32.00;;;;;;;3.47;100.00;101137.78;5092290;28;20385;-72
2022/03/05 02:14:48;;;;;;;55.40;33.05;;;;;;;3.17;100.00;101139.81;5093133;28;20025;-72
2022/03/05 02:17:34;;;;;;;58.40;33.55;;;;;;;2.86;100.00;101129.69;5093661;28;20092;-73
2022/03/05 02:20:20;;;;;;;54.45;31.88;;;;;;;3.24;100.00;101130.44;5093077;28;20081;-74
2022/03/05 02:23:06;;;;;;;53.90;32.53;;;;;;;3.18;100.00;101126.00;5093190;28;20035;-74
2022/03/05 02:25:57;;;;;;;53.05;32.03;;;;;;;3.27;100.00;101122.72;5097697;28;20034;-73
2022/03/05 02:28:43;;;;;;;53.30;31.38;;;;;;;3.17;100.00;101116.50;5097775;28;20043;-73
2022/03/05 02:31:29;;;;;;;59.47;32.97;;;;;;;3.19;100.00;101109.66;5097035;28;20061;-72
2022/03/05 02:34:15;;;;;;;52.97;31.17;;;;;;;3.12;100.00;101104.31;5081572;28;20024;-72
2022/03/05 02:37:00;;;;;;;56.35;33.00;;;;;;;3.25;100.00;101112.34;5097966;28;20364;-74
2022/03/05 02:39:47;;;;;;;55.22;33.00;;;;;;;3.17;100.00;101108.75;5097009;28;20371;-73
2022/03/05 02:42:33;;;;;;;61.97;34.58;;;;;;;3.06;100.00;101115.44;5096592;28;20035;-72
2022/03/05 02:45:19;;;;;;;56.38;32.78;;;;;;;2.82;100.00;101121.88;5097432;28;20023;-73
2022/03/05 02:48:07;;;;;;;53.08;32.00;;;;;;;2.96;100.00;101123.88;5081790;28;20099;-72
2022/03/05 02:50:53;;;;;;;51.92;31.08;;;;;;;2.86;100.00;101123.66;5096053;28;20055;-73
2022/03/05 02:53:39;;;;;;;55.72;32.63;;;;;;;2.91;100.00;101125.50;5096583;28;20024;-72
2022/03/05 02:56:25;;;;;;;50.50;30.27;;;;;;;3.05;100.00;101131.81;5096330;28;20024;-73
2022/03/05 02:59:11;;;;;;;52.90;31.08;;;;;;;3.28;100.00;101132.25;5096449;28;20028;-73
2022/03/05 03:01:56;;;;;;;53.80;31.75;;;;;;;3.25;100.00;101139.94;5096480;28;20408;-72
2022/03/05 03:04:42;;;;;;;51.22;29.70;;;;;;;3.45;100.00;101139.47;5096619;28;20533;-73
2022/03/05 03:07:28;;;;;;;50.45;30.40;;;;;;;3.38;100.00;101137.59;5082475;28;20440;-72
2022/03/05 03:10:15;;;;;;;50.65;31.05;;;;;;;3.48;100.00;101138.66;5097125;28;20098;-73
2022/03/05 03:13:01;;;;;;;51.83;30.90;;;;;;;3.76;100.00;101139.16;5096361;28;20146;-72
2022/03/05 03:15:46;;;;;;;52.85;31.02;;;;;;;3.79;100.00;101143.50;5096335;28;20474;-73
2022/03/05 03:18:32;;;;;;;50.03;30.10;;;;;;;3.58;100.00;101145.75;5096547;28;20020;-72
2022/03/05 03:21:18;;;;;;;50.85;30.65;;;;;;;3.73;100.00;101149.47;5096565;28;20098;-73
2022/03/05 03:24:04;;;;;;;47.85;30.48;;;;;;;3.67;100.00;101151.06;5081971;28;20085;-73
2022/03/05 03:26:50;;;;;;;51.75;29.83;;;;;;;3.81;100.00;101160.81;5096083;28;20038;-73
2022/03/05 03:29:36;;;;;;;50.15;30.13;;;;;;;3.67;100.00;101162.31;5094750;28;20023;-73
2022/03/05 03:32:22;;;;;;;49.38;29.60;;;;;;;3.50;100.00;101165.47;5081303;28;20060;-72
2022/03/05 03:35:09;;;;;;;47.42;29.98;;;;;;;3.66;100.00;101177.84;5094171;28;20368;-72
2022/03/05 03:37:55;;;;;;;50.40;30.02;;;;;;;3.75;100.00;101175.41;5096414;28;20059;-72
2022/03/05 03:40:41;;;;;;;52.83;31.73;;;;;;;3.69;100.00;101173.56;5095485;28;20455;-72
2022/03/05 03:43:26;;;;;;;49.95;30.92;;;;;;;4.01;100.00;101187.06;5082029;28;20043;-73
2022/03/05 03:46:12;;;;;;;52.17;31.30;;;;;;;3.92;100.00;101177.44;5095182;28;20466;-73
2022/03/05 03:48:58;;;;;;;49.75;30.75;;;;;;;3.78;100.00;101184.09;5095214;28;20368;-72
2022/03/05 03:51:44;;;;;;;49.20;30.40;;;;;;;4.12;100.00;101182.94;5080213;28;20056;-72
2022/03/05 03:54:29;;;;;;;47.70;30.42;;;;;;;3.99;100.00;101184.44;5095953;28;20093;-74
2022/03/05 03:57:16;;;;;;;50.67;31.70;;;;;;;3.82;100.00;101183.28;5080169;28;20036;-72
2022/03/05 04:00:04;;;;;;;50.35;30.65;;;;;;;3.95;100.00;101187.81;5080922;28;20047;-73
2022/03/05 04:02:50;;;;;;;50.50;30.25;;;;;;;3.61;100.00;101190.69;5097246;28;20023;-74
2022/03/05 04:05:36;;;;;;;50.38;31.90;;;;;;;3.50;100.00;101192.22;5079800;28;20012;-73
2022/03/05 04:11:26;;;;;;;51.95;33.08;;;;;;;3.28;100.00;101192.66;5094953;28;20043;-72
2022/03/05 04:14:12;;;;;;;57.03;33.83;;;;;;;3.55;100.00;101200.09;5079717;28;20028;-73
2022/03/05 04:16:58;;;;;;;51.53;31.55;;;;;;;3.47;100.00;101210.31;5094982;28;20371;-72
2022/03/05 04:19:44;;;;;;;54.88;32.75;;;;;;;3.09;100.00;101207.81;5095857;28;20019;-71
2022/03/05 04:22:30;;;;;;;53.45;32.97;;;;;;;2.84;100.00;101214.19;5094063;28;20448;-72
2022/03/05 04:25:15;;;;;;;53.60;33.20;;;;;;;2.61;100.00;101222.31;5095327;28;20024;-71
2022/03/05 04:28:01;;;;;;;60.50;35.17;;;;;;;2.66;100.00;101224.13;5079403;28;20031;-73
2022/03/05 04:30:47;;;;;;;59.05;35.53;;;;;;;2.55;100.00;101230.78;5080273;28;20031;-72
2022/03/05 04:33:33;;;;;;;62.55;35.92;;;;;;;2.75;100.00;101233.81;5094725;28;20028;-72
2022/03/05 04:36:18;;;;;;;63.13;35.20;;;;;;;2.70;100.00;101233.69;5094905;28;20039;-74
2022/03/05 04:39:04;;;;;;;65.90;37.00;;;;;;;2.81;100.00;101236.56;5094701;28;20032;-73
2022/03/05 04:41:51;;;;;;;62.85;35.85;;;;;;;2.49;100.00;101240.13;5094660;28;20119;-73
2022/03/05 04:44:36;;;;;;;62.13;36.47;;;;;;;2.70;100.00;101233.69;5094159;28;20039;-74
2022/03/05 04:47:22;;;;;;;62.83;35.63;;;;;;;2.76;100.00;101240.72;5094498;28;20028;-73
2022/03/05 04:50:10;;;;;;;71.70;37.65;;;;;;;2.72;100.00;101237.22;5094105;28;20433;-73
2022/03/05 04:52:55;;;;;;;67.57;37.42;;;;;;;2.42;100.00;101249.47;5094215;28;20397;-73
2022/03/05 04:55:42;;;;;;;67.40;38.55;;;;;;;2.33;100.00;101248.38;5094773;28;20062;-73
2022/03/05 04:58:28;;;;;;;70.13;37.35;;;;;;;2.36;100.00;101254.47;5093333;28;20429;-73
2022/03/05 05:01:14;;;;;;;65.68;35.22;;;;;;;2.19;100.00;101255.78;5094546;28;20034;-74
2022/03/05 05:03:59;;;;;;;56.97;32.40;;;;;;;2.26;100.00;101249.94;5093980;28;20517;-73
2022/03/05 05:06:45;;;;;;;58.65;33.38;;;;;;;2.09;100.00;101246.03;5079487;28;20434;-74
2022/03/05 05:09:31;;;;;;;58.63;33.00;;;;;;;1.86;100.00;101249.78;5093683;28;20107;-73
2022/03/05 05:12:17;;;;;;;59.92;34.08;;;;;;;2.00;100.00;101258.72;5093985;28;20127;-73
2022/03/05 05:15:03;;;;;;;61.05;34.22;;;;;;;1.90;100.00;101253.28;5094219;28;20036;-72
2022/03/05 05:17:50;;;;;;;66.85;36.50;;;;;;;1.97;100.00;101256.06;5094118;28;20062;-72
2022/03/05 05:20:36;;;;;;;69.75;38.38;;;;;;;2.05;100.00;101270.06;5094840;28;20027;-73
2022/03/05 05:23:22;;;;;;;61.72;35.90;;;;;;;2.11;100.00;101269.34;5093740;28;20020;-72
2022/03/05 05:26:07;;;;;;;67.05;36.85;;;;;;;2.22;100.00;101273.97;5094079;28;20421;-72
2022/03/05 05:28:53;;;;;;;64.53;35.83;;;;;;;2.27;100.00;101272.34;5094044;28;20414;-74
2022/03/05 05:31:39;;;;;;;62.15;34.47;;;;;;;2.11;100.00;101280.56;5095051;28;20019;-72
2022/03/05 05:34:25;;;;;;;61.92;35.42;;;;;;;2.11;100.00;101285.72;5094184;28;20016;-74
2022/03/05 05:37:11;;;;;;;64.60;36.20;;;;;;;2.20;100.00;101288.53;5093635;28;20052;-74
2022/03/05 05:39:57;;;;;;;64.85;36.78;;;;;;;2.44;100.00;101291.72;5093694;28;20028;-73
2022/03/05 05:42:43;;;;;;;67.60;36.03;;;;;;;2.35;100.00;101288.03;5079550;28;20047;-73
2022/03/05 05:45:29;;;;;;;71.80;38.88;;;;;;;2.28;100.00;101297.34;5079988;28;20020;-73
2022/03/05 05:48:15;;;;;;;69.07;37.65;;;;;;;2.57;100.00;101300.66;5093061;28;20028;-73
2022/03/05 05:51:00;;;;;;;65.32;37.65;;;;;;;2.70;100.00;101307.88;5079347;28;20081;-73
2022/03/05 05:53:46;;;;;;;70.95;38.70;;;;;;;2.81;100.00;101314.16;5078341;28;20024;-73
2022/03/05 05:56:32;;;;;;;71.68;39.30;;;;;;;2.79;100.00;101314.13;5078753;28;20329;-72
2022/03/05 05:59:18;;;;;;;75.25;39.10;;;;;;;3.12;100.00;101327.81;5097112;28;20046;-74
2022/03/05 06:02:03;;;;;;;70.93;36.47;;;;;;;2.71;100.00;101323.44;5098363;28;20032;-73
2022/03/05 06:04:49;;;;;;;70.25;37.33;;;;;;;3.14;100.00;101327.84;5098337;28;20024;-73
2022/03/05 06:07:35;;;;;;;68.47;36.92;;;;;;;2.99;100.00;101333.56;5097873;28;20356;-74
2022/03/05 06:10:21;;;;;;;73.43;37.35;;;;;;;3.22;100.00;101326.31;5097261;28;20043;-73
2022/03/05 06:13:07;;;;;;;66.03;36.15;;;;;;;3.18;100.00;101329.69;5098368;28;20040;-74
2022/03/05 06:15:52;;;;;;;70.07;36.15;;;;;;;3.52;100.00;101327.81;5097611;28;20122;-73
2022/03/05 06:18:38;;;;;;;67.57;36.45;;;;;;;3.61;100.00;101325.41;5097812;28;20452;-72
2022/03/05 06:21:24;;;;;;;60.63;34.15;;;;;;;3.52;100.00;101324.34;5097361;28;20418;-72
2022/03/05 06:24:10;;;;;;;59.53;34.70;;;;;;;3.81;100.00;101321.50;5097725;28;20036;-74
2022/03/05 06:26:55;;;;;;;65.30;36.25;;;;;;;3.86;100.00;101321.59;5096641;28;20020;-73
2022/03/05 06:29:41;;;;;;;68.20;33.78;;;;;;;3.28;100.00;101329.91;5096664;28;20455;-73
2022/03/05 06:32:27;;;;;;;62.88;34.45;;;;;;;4.00;100.00;101328.78;5098281;28;20349;-73
2022/03/05 06:35:13;;;;;;;62.75;35.45;;;;;;;4.54;100.00;101334.91;5097525;28;20077;-71
2022/03/05 06:37:59;;;;;;;60.47;33.95;;;;;;;4.37;100.00;101335.47;5082416;28;20329;-73
2022/03/05 06:40:45;;;;;;;63.03;34.75;;;;;;;3.89;100.00;101325.09;5097214;28;20020;-73
2022/03/05 06:43:31;;;;;;;64.25;34.25;;;;;;;3.94;100.00;101333.84;5097573;28;20019;-74
2022/03/05 06:46:16;;;;;;;66.22;34.30;;;;;;;3.92;100.00;101330.34;5095905;28;20032;-74
2022/03/05 06:49:02;;;;;;;62.00;33.05;;;;;;;3.73;100.00;101333.44;5097193;28;20063;-72
2022/03/05 06:51:48;;;;;;;68.78;35.42;;;;;;;3.77;100.00;101337.81;5096865;28;20452;-72
2022/03/05 06:54:34;;;;;;;61.13;33.22;;;;;;;3.87;100.00;101337.16;5097124;28;20028;-73
2022/03/05 06:57:20;;;;;;;60.55;33.80;;;;;;;4.04;100.00;101350.44;5096695;28;20062;-75
2022/03/05 07:00:06;;;;;;;56.05;33.13;;;;;;;3.75;100.00;101344.72;5096424;28;20118;-72
2022/03/05 07:02:52;;;;;;;53.00;31.92;;;;;;;3.89;100.00;101339.78;5096068;28;20042;-71
2022/03/05 07:05:38;;;;;;;54.03;31.63;;;;;;;4.24;100.00;101338.72;5096289;28;20451;-72
2022/03/05 07:08:23;;;;;;;53.40;31.80;;;;;;;4.43;100.00;101345.97;5081341;28;20395;-72
2022/03/05 07:11:09;;;;;;;46.30;29.75;;;;;;;4.42;100.00;101345.09;5095457;28;20052;-72
2022/03/05 07:13:55;;;;;;;49.40;30.35;;;;;;;4.82;100.00;101350.09;5096542;28;20367;-73
2022/03/05 07:16:41;;;;;;;49.13;29.05;;;;;;;4.75;100.00;101349.97;5096727;28;20426;-73
2022/03/05 07:19:26;;;;;;;45.17;28.60;;;;;;;4.82;100.00;101355.28;5096466;28;20039;-73
2022/03/05 07:22:12;;;;;;;43.88;27.48;;;;;;;5.01;100.00;101362.50;5095110;28;20027;-72
2022/03/05 07:24:58;;;;;;;46.72;28.30;;;;;;;5.20;100.00;101368.84;5095935;28;20440;-72
2022/03/05 07:27:44;;;;;;;46.08;28.35;;;;;;;5.26;100.00;101362.00;5096097;28;20028;-73
2022/03/05 07:30:30;;;;;;;46.63;28.10;;;;;;;5.43;100.00;101360.50;5095425;28;20441;-74
2022/03/05 07:33:15;;;;;;;43.55;27.38;;;;;;;5.86;100.00;101356.75;5096503;28;20436;-72
2022/03/05 07:36:04;;;;;;;46.35;26.10;;;;;;;5.98;100.00;101356.03;5096267;28;20036;-73
2022/03/05 07:38:51;;;;;;;47.53;27.52;;;;;;;6.07;100.00;101358.72;5096270;28;20488;-74
2022/03/05 07:41:37;;;;;;;44.83;28.20;;;;;;;6.02;100.00;101358.66;5096047;28;20035;-73
2022/03/05 07:44:22;;;;;;;43.30;27.35;;;;;;;5.98;100.00;101362.09;5096194;28;20028;-72
2022/03/05 07:47:08;;;;;;;46.20;26.67;;;;;;;6.11;100.00;101363.09;5095822;28;20092;-73
2022/03/05 07:49:54;;;;;;;45.08;27.80;;;;;;;6.10;100.00;101371.78;5095968;28;20452;-72
2022/03/05 07:52:40;;;;;;;47.83;28.67;;;;;;;6.19;100.00;101362.31;5095773;28;20067;-72
2022/03/05 07:55:25;;;;;;;48.35;29.45;;;;;;;6.54;100.00;101365.25;5095875;28;20035;-72
2022/03/05 07:58:11;;;;;;;45.47;27.00;;;;;;;6.38;100.00;101363.41;5095634;28;20024;-72
2022/03/05 08:00:58;;;;;;;47.13;28.23;;;;;;;6.08;100.00;101363.94;5096141;28;20032;-73
2022/03/05 08:03:44;;;;;;;47.22;28.38;;;;;;;6.32;100.00;101368.53;5094641;28;20050;-75
2022/03/05 08:06:29;;;;;;;44.63;27.58;;;;;;;6.14;100.00;101369.19;5080310;28;20055;-73
2022/03/05 08:09:15;;;;;;;44.60;27.08;;;;;;;6.18;100.00;101370.97;5095161;28;20036;-72
2022/03/05 08:12:02;;;;;;;44.53;27.20;;;;;;;6.26;100.00;101378.88;5095046;28;20052;-72
2022/03/05 08:14:48;;;;;;;49.67;29.17;;;;;;;6.21;100.00;101375.34;5094908;28;20028;-72
2022/03/05 08:17:33;;;;;;;45.80;27.55;;;;;;;6.14;100.00;101383.97;5095053;28;20133;-73
2022/03/05 08:20:20;;;;;;;44.42;27.45;;;;;;;6.00;100.00;101378.59;5095056;28;20028;-72
2022/03/05 08:23:06;;;;;;;50.35;29.55;;;;;;;6.49;100.00;101379.97;5095064;28;20047;-72
2022/03/05 08:25:52;;;;;;;46.55;26.27;;;;;;;6.54;100.00;101378.28;5095352;28;20035;-71
2022/03/05 08:28:38;;;;;;;45.05;28.70;;;;;;;7.07;100.00;101387.44;5094999;28;20027;-71
2022/03/05 08:31:23;;;;;;;40.88;26.20;;;;;;;6.79;100.00;101388.06;5095315;28;20035;-71
2022/03/05 08:34:09;;;;;;;60.92;28.25;;;;;;;7.27;100.00;101391.03;5079612;28;20368;-70
2022/03/05 08:36:55;;;;;;;50.13;30.23;;;;;;;7.60;100.00;101393.84;5094148;28;20028;-71
2022/03/05 08:39:41;;;;;;;46.30;24.95;;;;;;;7.33;100.00;101398.88;5079419;28;20042;-71
2022/03/05 08:42:26;;;;;;;47.72;27.90;;;;;;;6.70;100.00;101394.06;5094667;28;20024;-71
2022/03/05 08:45:12;;;;;;;45.30;26.92;;;;;;;6.49;100.00;101380.84;5094273;28;20464;-71
2022/03/05 08:47:58;;;;;;;45.35;26.70;;;;;;;6.62;100.00;101376.59;5095501;28;20020;-70
2022/03/05 08:50:44;;;;;;;47.53;26.55;;;;;;;6.90;100.00;101378.59;5079297;28;20023;-71
2022/03/05 08:53:30;;;;;;;42.75;25.42;;;;;;;6.77;100.00;101387.16;5094252;28;20078;-71
2022/03/05 08:56:16;;;;;;;42.38;26.17;;;;;;;6.71;100.00;101382.78;5095667;28;20023;-71
2022/03/05 08:59:01;;;;;;;42.88;25.80;;;;;;;6.42;100.00;101380.75;5094689;28;20395;-72
2022/03/05 09:01:48;;;;;;;48.30;28.27;;;;;;;6.49;100.00;101378.25;5094344;28;20054;-72
2022/03/05 09:04:34;;;;;;;52.50;31.08;;;;;;;6.93;100.00;101376.00;5079938;28;20375;-72
2022/03/05 09:07:20;;;;;;;49.20;27.50;;;;;;;6.29;100.00;101373.69;5094993;28;20128;-71
2022/03/05 09:10:07;;;;;;;55.40;34.85;;;;;;;7.11;100.00;101373.56;5094045;28;20051;-72
2022/03/05 09:12:53;;;;;;;50.95;28.50;;;;;;;6.89;100.00;101380.34;5078996;28;20083;-72
2022/03/05 09:15:39;;;;;;;50.65;29.30;;;;;;;7.54;100.00;101368.59;5094318;28;20024;-72
2022/03/05 09:18:24;;;;;;;42.95;26.73;;;;;;;7.69;100.00;101363.47;5094195;28;20160;-73
2022/03/05 09:21:10;;;;;;;44.00;27.40;;;;;;;8.74;100.00;101368.09;5094037;28;20058;-73
2022/03/05 09:23:56;;;;;;;44.40;26.45;;;;;;;7.99;100.00;101365.28;5094045;28;20028;-72
2022/03/05 09:26:42;;;;;;;42.95;27.65;;;;;;;7.89;100.00;101359.19;5094584;28;20051;-72
2022/03/05 09:29:27;;;;;;;46.58;28.73;;;;;;;8.21;100.00;101368.03;5093942;28;20028;-73
2022/03/05 09:32:13;;;;;;;44.08;27.90;;;;;;;7.77;100.00;101360.88;5093352;28;20111;-72
2022/03/05 09:34:59;;;;;;;47.92;29.55;;;;;;;7.30;100.00;101371.06;5093933;28;20399;-71
2022/03/05 09:37:45;;;;;;;38.88;26.25;;;;;;;6.92;100.00;101369.94;5094472;28;20024;-72
2022/03/05 09:40:31;;;;;;;43.05;26.17;;;;;;;7.16;100.00;101372.69;5093915;28;20406;-74
2022/03/05 09:43:18;;;;;;;46.22;29.17;;;;;;;7.59;100.00;101374.69;5094533;28;20055;-73
2022/03/05 09:46:04;;;;;;;44.13;27.15;;;;;;;7.04;100.00;101362.22;5078519;28;20116;-73
2022/03/05 09:48:56;;;;;;;43.92;27.58;;;;;;;8.08;100.00;101357.50;5093533;28;20020;-73
2022/03/05 09:51:44;;;;;;;43.30;26.35;;;;;;;7.56;100.00;101366.00;5093639;28;20393;-72
2022/03/05 09:54:30;;;;;;;45.22;26.85;;;;;;;8.12;100.00;101367.09;5093938;28;20060;-72
2022/03/05 09:57:15;;;;;;;44.58;28.88;;;;;;;8.01;100.00;101376.63;5080074;28;20119;-73
2022/03/05 10:00:03;;;;;;;42.65;28.48;;;;;;;7.70;100.00;101378.25;5078473;28;20444;-73
2022/03/05 10:02:49;;;;;;;40.55;27.95;;;;;;;7.97;100.00;101370.53;5093369;28;20123;-73
2022/03/05 10:05:36;;;;;;;43.13;28.13;;;;;;;8.02;100.00;101373.13;5078101;28;20020;-73
2022/03/05 10:08:22;;;;;;;41.80;26.67;;;;;;;8.18;100.00;101374.94;5092497;28;20039;-73
2022/03/05 10:11:09;;;;;;;47.65;26.38;;;;;;;8.56;100.00;101375.91;5091987;28;20132;-72
2022/03/05 10:13:56;;;;;;;46.25;28.67;;;;;;;9.07;100.00;101381.13;5092952;28;20317;-73
2022/03/05 10:16:43;;;;;;;42.03;26.85;;;;;;;8.69;100.00;101383.75;5092534;28;20040;-73
2022/03/05 10:19:29;;;;;;;41.25;26.25;;;;;;;8.66;100.00;101378.53;5093812;28;20023;-73
2022/03/05 10:22:15;;;;;;;38.72;25.60;;;;;;;8.97;100.00;101382.03;5092637;28;20059;-72
2022/03/05 10:25:01;;;;;;;52.65;27.52;;;;;;;9.26;100.00;101372.41;5094452;28;20024;-73
2022/03/05 10:27:47;;;;;;;44.88;26.33;;;;;;;9.33;100.00;101372.38;5094602;28;20030;-72
2022/03/05 10:30:36;;;;;;;40.90;27.80;;;;;;;8.98;100.00;101376.81;5093970;28;20028;-72
2022/03/05 10:33:41;;;;;;;65.60;38.83;;;;;;;8.91;100.00;101374.19;5093528;28;20450;-73
2022/03/05 10:36:27;;;;;;;50.78;29.25;;;;;;;8.30;100.00;101380.22;5081615;28;20040;-72
2022/03/05 10:39:24;;;;;;;46.60;29.75;;;;;;;8.00;100.00;101374.88;5093764;28;20031;-72
2022/03/05 10:42:17;;;;;;;42.70;27.90;;;;;;;7.55;100.00;101369.47;5093414;28;20024;-73
2022/03/05 10:45:08;;;;;;;43.83;26.35;;;;;;;7.95;100.00;101371.38;5080785;28;20013;-73
2022/03/05 10:47:54;;;;;;;52.83;31.02;;;;;;;8.77;100.00;101378.53;5097046;28;20165;-74
2022/03/05 10:50:41;;;;;;;44.33;27.05;;;;;;;9.33;100.00;101372.38;5097359;28;20042;-71
2022/03/05 10:53:42;;;;;;;40.78;26.30;;;;;;;9.42;100.00;101368.88;5097435;28;20043;-71
2022/03/05 10:56:33;;;;;;;50.72;31.35;;;;;;;9.27;100.00;101367.19;5082173;28;20039;-72
2022/03/05 10:59:22;;;;;;;46.78;27.30;;;;;;;9.53;100.00;101370.59;5096746;28;20028;-74
2022/03/05 11:02:09;;;;;;;47.05;28.30;;;;;;;9.83;100.00;101378.34;5081457;28;20028;-72
2022/03/05 11:04:57;;;;;;;49.58;30.65;;;;;;;9.11;100.00;101377.66;5096039;28;20020;-73
2022/03/05 11:07:43;;;;;;;42.22;26.63;;;;;;;8.92;100.00;101363.72;5096918;28;20043;-73
2022/03/05 11:10:30;;;;;;;41.83;28.05;;;;;;;9.36;100.00;101367.16;5095912;28;20447;-73
2022/03/05 11:13:16;;;;;;;42.50;25.17;;;;;;;9.35;100.00;101364.53;5095348;28;20036;-73
2022/03/05 11:16:02;;;;;;;49.45;32.97;;;;;;;9.25;100.00;101366.28;5082257;28;20156;-73
2022/03/05 11:18:48;;;;;;;40.20;26.70;;;;;;;9.86;100.00;101365.22;5096768;28;20095;-73
2022/03/05 11:21:34;;;;;;;45.60;27.30;;;;;;;9.48;100.00;101371.47;5097278;28;20054;-73
2022/03/05 11:24:21;;;;;;;48.08;27.73;;;;;;;9.91;100.00;101360.88;5096953;28;20023;-74
2022/03/05 11:27:12;;;;;;;39.95;26.65;;;;;;;9.38;100.00;101368.03;5096823;28;20466;-72
2022/03/05 11:30:04;;;;;;;43.00;27.92;;;;;;;10.14;100.00;101366.00;5096304;28;20028;-73
2022/03/05 11:32:50;;;;;;;44.42;28.67;;;;;;;9.52;100.00;101368.84;5096749;28;20127;-72
2022/03/05 11:35:42;;;;;;;44.95;28.45;;;;;;;8.83;100.00;101357.63;5096009;28;20024;-73
2022/03/05 11:38:37;;;;;;;47.85;28.60;;;;;;;8.88;100.00;101354.16;5097017;28;20091;-71
2022/03/05 11:41:26;;;;;;;41.03;26.70;;;;;;;8.49;100.00;101341.06;5095826;28;20031;-74
2022/03/05 11:44:14;;;;;;;45.58;26.95;;;;;;;8.66;100.00;101341.09;5095447;28;20349;-74
2022/03/05 11:47:30;;;;;;;44.53;28.77;;;;;;;8.62;100.00;101341.97;5081856;28;20025;-73
2022/03/05 11:50:17;;;;;;;44.67;28.95;;;;;;;8.87;100.00;101344.56;5096888;28;20066;-74
2022/03/05 11:53:04;;;;;;;49.60;28.67;;;;;;;8.60;100.00;101333.25;5079982;28;20376;-73
2022/03/05 11:55:50;;;;;;;43.05;28.58;;;;;;;8.83;100.00;101337.59;5094828;28;20507;-74
2022/03/05 11:58:36;;;;;;;43.70;28.70;;;;;;;8.40;100.00;101324.56;5095365;28;20028;-73
2022/03/05 12:01:42;;;;;;;42.97;27.02;;;;;;;8.38;100.00;101321.06;5081498;28;20031;-73
2022/03/05 12:04:29;;;;;;;47.00;28.08;;;;;;;9.38;100.00;101320.06;5095479;28;20441;-73
2022/03/05 12:07:16;;;;;;;42.50;28.08;;;;;;;8.95;100.00;101321.91;5095254;28;20032;-73
2022/03/05 12:10:12;;;;;;;41.28;27.55;;;;;;;9.01;100.00;101318.44;5095992;28;20355;-73
2022/03/05 12:13:03;;;;;;;42.55;27.17;;;;;;;9.61;100.00;101326.97;5094269;28;20384;-73
2022/03/05 12:15:49;;;;;;;40.05;26.85;;;;;;;9.07;100.00;101326.25;5080306;28;20024;-73
2022/03/05 12:18:35;;;;;;;41.55;26.80;;;;;;;8.78;100.00;101314.97;5095844;28;20040;-74
2022/03/05 12:21:29;;;;;;;43.10;28.10;;;;;;;8.91;100.00;101317.56;5095440;28;20460;-73
2022/03/05 12:24:15;;;;;;;38.03;26.25;;;;;;;8.92;100.00;101321.06;5094343;28;20024;-73
2022/03/05 12:27:05;;;;;;;42.03;26.27;;;;;;;9.51;100.00;101303.47;5094905;28;20453;-73
2022/03/05 12:29:52;;;;;;;42.10;27.35;;;;;;;10.22;100.00;101317.09;5095163;28;20065;-73
2022/03/05 12:32:41;;;;;;;39.55;27.80;;;;;;;9.73;100.00;101315.59;5094314;28;20106;-72
2022/03/05 12:35:27;;;;;;;39.35;27.33;;;;;;;10.30;100.00;101311.78;5095002;28;20038;-73
2022/03/05 12:38:21;;;;;;;40.78;26.27;;;;;;;10.16;100.00;101311.03;5094262;28;20115;-74
2022/03/05 12:41:07;;;;;;;40.50;26.17;;;;;;;10.29;100.00;101317.91;5080038;28;20063;-74